createdAt,value
2022-10-09T00:01:24.917Z,2.10
2022-10-09T00:03:54.988Z,2.20
2022-10-09T00:06:26.633Z,2.70
2022-10-09T00:08:55.202Z,2.50
2022-10-09T00:11:26.188Z,2.70
2022-10-09T00:13:55.452Z,2.70
2022-10-09T00:16:24.785Z,2.20
2022-10-09T00:18:53.432Z,1.90
2022-10-09T00:21:31.299Z,2.10
2022-10-09T00:24:01.651Z,2.50
2022-10-09T00:26:30.276Z,2.30
2022-10-09T00:28:58.683Z,2.30
2022-10-09T00:31:26.941Z,2.10
2022-10-09T00:33:55.714Z,2.40
2022-10-09T00:36:25.955Z,2.00
2022-10-09T00:38:55.345Z,2.00
2022-10-09T00:41:29.998Z,2.00
2022-10-09T00:44:03.897Z,2.50
2022-10-09T00:46:33.825Z,2.00
2022-10-09T00:49:08.188Z,2.00
2022-10-09T00:51:36.773Z,2.00
2022-10-09T00:54:08.456Z,2.00
2022-10-09T00:56:36.535Z,2.10
2022-10-09T00:59:06.116Z,1.90
2022-10-09T01:01:34.614Z,1.90
2022-10-09T01:04:02.794Z,1.90
2022-10-09T01:07:15.333Z,2.00
2022-10-09T01:09:49.889Z,2.10
2022-10-09T01:12:31.039Z,1.80
2022-10-09T01:15:08.145Z,2.10
2022-10-09T01:17:44.213Z,2.10
2022-10-09T01:20:25.008Z,1.80
2022-10-09T01:23:21.014Z,2.00
2022-10-09T01:26:07.452Z,2.30
2022-10-09T01:28:36.880Z,1.80
2022-10-09T01:31:06.843Z,1.80
2022-10-09T01:36:04.979Z,2.00
2022-10-09T01:38:35.065Z,1.60
2022-10-09T01:43:32.517Z,1.70
2022-10-09T01:46:23.893Z,1.70
2022-10-09T01:49:42.753Z,1.50
2022-10-09T01:52:32.117Z,1.50
2022-10-09T01:55:00.176Z,1.60
2022-10-09T01:57:52.612Z,2.10
2022-10-09T02:00:21.361Z,1.70
2022-10-09T02:02:52.828Z,1.70
2022-10-09T02:05:29.120Z,2.10
2022-10-09T02:07:59.473Z,1.30
2022-10-09T02:10:27.944Z,1.80
2022-10-09T02:13:01.222Z,2.00
2022-10-09T02:15:39.062Z,2.00
2022-10-09T02:18:11.404Z,1.80
2022-10-09T02:20:48.351Z,1.60
2022-10-09T02:23:18.415Z,1.80
2022-10-09T02:25:46.740Z,1.70
2022-10-09T02:28:15.145Z,1.90
2022-10-09T02:31:01.895Z,1.90
2022-10-09T02:33:34.540Z,1.50
2022-10-09T02:36:03.389Z,1.60
2022-10-09T02:38:31.483Z,1.70
2022-10-09T02:41:00.959Z,2.00
2022-10-09T02:43:29.448Z,1.60
2022-10-09T02:45:57.503Z,1.80
2022-10-09T02:48:25.491Z,1.40
2022-10-09T02:50:53.853Z,1.80
2022-10-09T02:53:21.939Z,1.70
2022-10-09T02:55:49.985Z,2.00
2022-10-09T02:58:18.458Z,1.60
2022-10-09T03:00:51.071Z,1.60
2022-10-09T03:03:20.652Z,1.60
2022-10-09T03:05:49.340Z,1.90
2022-10-09T03:08:17.485Z,2.00
2022-10-09T03:10:45.500Z,1.80
2022-10-09T03:13:13.560Z,1.80
2022-10-09T03:15:41.722Z,1.90
2022-10-09T03:18:09.816Z,2.20
2022-10-09T03:20:38.620Z,1.90
2022-10-09T03:23:06.630Z,1.70
2022-10-09T03:25:34.652Z,1.70
2022-10-09T03:28:03.071Z,2.20
2022-10-09T03:30:31.204Z,2.10
2022-10-09T03:32:59.493Z,2.30
2022-10-09T03:35:27.565Z,2.00
2022-10-09T03:37:55.584Z,2.20
2022-10-09T03:40:23.603Z,2.30
2022-10-09T03:42:51.850Z,2.20
2022-10-09T03:45:20.064Z,1.70
2022-10-09T03:47:48.105Z,1.90
2022-10-09T03:50:16.968Z,1.90
2022-10-09T03:52:45.000Z,2.20
2022-10-09T03:55:12.979Z,1.80
2022-10-09T03:57:41.103Z,2.40
2022-10-09T04:00:09.855Z,2.70
2022-10-09T04:02:37.890Z,1.90
2022-10-09T04:05:07.168Z,1.60
2022-10-09T04:07:35.405Z,1.70
2022-10-09T04:10:05.122Z,2.10
2022-10-09T04:12:33.239Z,1.90
2022-10-09T04:15:01.375Z,2.20
2022-10-09T04:17:30.443Z,1.90
2022-10-09T04:19:58.477Z,1.60
2022-10-09T04:22:26.561Z,1.70
2022-10-09T04:24:54.599Z,1.90
2022-10-09T04:27:22.723Z,2.40
2022-10-09T04:29:50.873Z,2.40
2022-10-09T04:32:18.860Z,2.10
2022-10-09T04:34:47.108Z,2.20
2022-10-09T04:37:15.167Z,1.80
2022-10-09T04:39:43.137Z,2.30
2022-10-09T04:42:11.188Z,2.40
2022-10-09T04:44:39.241Z,2.40
2022-10-09T04:47:11.135Z,2.10
2022-10-09T04:49:40.414Z,2.60
2022-10-09T04:52:08.432Z,2.40
2022-10-09T04:54:36.407Z,2.70
2022-10-09T04:57:04.994Z,3.20
2022-10-09T04:59:33.019Z,2.80
2022-10-09T05:02:01.434Z,2.40
2022-10-09T05:04:29.777Z,3.10
2022-10-09T05:06:57.758Z,3.30
2022-10-09T05:09:25.807Z,2.90
2022-10-09T05:11:53.922Z,3.20
2022-10-09T05:14:22.129Z,3.40
2022-10-09T05:17:12.626Z,2.90
2022-10-09T05:19:40.354Z,3.00
2022-10-09T05:22:08.383Z,3.20
2022-10-09T05:24:36.367Z,2.90
2022-10-09T05:27:04.985Z,2.80
2022-10-09T05:29:33.183Z,2.80
2022-10-09T05:32:01.174Z,2.70
2022-10-09T05:34:29.348Z,2.70
2022-10-09T05:36:57.371Z,3.10
2022-10-09T05:39:25.467Z,2.40
2022-10-09T05:41:53.506Z,2.70
2022-10-09T05:44:21.620Z,2.80
2022-10-09T05:46:49.651Z,2.50
2022-10-09T05:49:17.726Z,2.70
2022-10-09T05:51:45.923Z,2.70
2022-10-09T05:54:16.426Z,2.80
2022-10-09T05:56:45.327Z,3.00
2022-10-09T05:59:19.111Z,3.60
2022-10-09T06:01:52.187Z,3.30
2022-10-09T06:04:23.031Z,2.80
2022-10-09T06:06:51.879Z,2.80
2022-10-09T06:09:23.432Z,2.80
2022-10-09T06:11:53.575Z,3.10
2022-10-09T06:16:50.649Z,2.90
2022-10-09T06:19:20.492Z,2.90
2022-10-09T06:21:49.319Z,3.40
2022-10-09T06:24:28.179Z,4.30
2022-10-09T06:26:58.226Z,4.50
2022-10-09T06:29:26.444Z,5.00
2022-10-09T06:31:54.505Z,4.30
2022-10-09T06:36:51.462Z,4.30
2022-10-09T06:39:19.640Z,4.10
2022-10-09T06:41:47.657Z,3.30
2022-10-09T06:44:17.310Z,3.50
2022-10-09T06:46:48.720Z,3.30
2022-10-09T06:49:17.286Z,3.00
2022-10-09T06:51:45.336Z,2.50
2022-10-09T06:54:15.791Z,3.00
2022-10-09T06:56:44.728Z,3.00
2022-10-09T06:59:13.206Z,3.80
2022-10-09T07:01:41.361Z,3.60
2022-10-09T07:04:14.455Z,3.10
2022-10-09T07:06:44.976Z,2.70
2022-10-09T07:09:14.689Z,2.60
2022-10-09T07:11:45.573Z,3.00
2022-10-09T07:14:16.123Z,3.40
2022-10-09T07:16:46.366Z,2.70
2022-10-09T07:19:17.822Z,2.70
2022-10-09T07:21:48.880Z,2.90
2022-10-09T07:24:18.113Z,2.90
2022-10-09T07:26:47.569Z,2.60
2022-10-09T07:29:17.861Z,2.60
2022-10-09T07:31:46.037Z,2.60
2022-10-09T07:34:14.284Z,2.80
2022-10-09T07:36:43.221Z,2.50
2022-10-09T07:39:11.633Z,2.80
2022-10-09T07:41:39.782Z,2.60
2022-10-09T07:44:07.779Z,2.50
2022-10-09T07:46:35.842Z,2.50
2022-10-09T07:49:04.732Z,3.10
2022-10-09T07:51:33.201Z,3.00
2022-10-09T07:54:02.394Z,2.70
2022-10-09T07:56:33.461Z,3.00
2022-10-09T07:59:13.485Z,2.30
2022-10-09T08:01:42.123Z,3.30
2022-10-09T08:04:10.194Z,2.70
2022-10-09T08:06:38.374Z,2.60
2022-10-09T08:09:07.758Z,2.80
2022-10-09T08:11:40.604Z,2.70
2022-10-09T08:14:18.074Z,2.60
2022-10-09T08:16:48.269Z,3.00
2022-10-09T08:19:37.019Z,2.60
2022-10-09T08:22:05.196Z,3.30
2022-10-09T08:24:33.308Z,2.90
2022-10-09T08:27:01.351Z,2.90
2022-10-09T08:29:29.751Z,2.80
2022-10-09T08:31:58.192Z,2.90
2022-10-09T08:34:26.259Z,2.80
2022-10-09T08:36:54.409Z,2.60
2022-10-09T08:39:22.842Z,2.50
2022-10-09T08:41:56.407Z,2.40
2022-10-09T08:44:29.507Z,2.70
2022-10-09T08:47:21.901Z,3.10
2022-10-09T08:49:55.987Z,2.80
2022-10-09T08:52:35.925Z,2.70
2022-10-09T08:55:17.717Z,3.20
2022-10-09T08:57:50.539Z,2.50
2022-10-09T09:00:24.172Z,2.80
2022-10-09T09:03:01.297Z,2.30
2022-10-09T09:05:40.593Z,2.40
2022-10-09T09:08:24.065Z,2.30
2022-10-09T09:11:02.502Z,3.00
2022-10-09T09:13:43.176Z,2.10
2022-10-09T09:16:35.742Z,2.50
2022-10-09T09:19:26.248Z,2.60
2022-10-09T09:21:56.577Z,2.80
2022-10-09T09:24:31.080Z,2.20
2022-10-09T09:27:03.443Z,2.50
2022-10-09T09:29:41.183Z,2.20
2022-10-09T09:32:20.661Z,2.50
2022-10-09T09:34:49.898Z,2.50
2022-10-09T09:37:18.048Z,2.60
2022-10-09T09:42:34.474Z,2.30
2022-10-09T09:45:06.739Z,2.10
2022-10-09T09:47:47.240Z,2.90
2022-10-09T09:50:45.475Z,2.50
2022-10-09T09:53:25.287Z,2.40
2022-10-09T09:55:54.705Z,2.20
2022-10-09T09:58:32.745Z,2.00
2022-10-09T10:01:03.554Z,2.30
2022-10-09T10:03:33.146Z,2.40
2022-10-09T10:06:01.602Z,2.60
2022-10-09T10:08:34.551Z,2.00
2022-10-09T10:11:07.642Z,1.90
2022-10-09T10:13:49.373Z,1.80
2022-10-09T10:16:38.864Z,1.80
2022-10-09T10:19:18.914Z,1.80
2022-10-09T10:21:51.577Z,1.80
2022-10-09T10:24:23.946Z,1.50
2022-10-09T10:27:30.235Z,1.40
2022-10-09T10:30:05.854Z,1.60
2022-10-09T10:32:55.564Z,1.60
2022-10-09T10:35:35.973Z,2.00
2022-10-09T10:38:06.369Z,1.80
2022-10-09T10:40:53.392Z,1.70
2022-10-09T10:43:44.851Z,1.20
2022-10-09T10:46:32.800Z,1.00
2022-10-09T10:49:01.042Z,1.20
2022-10-09T10:51:29.373Z,0.90
2022-10-09T10:54:16.355Z,1.50
2022-10-09T10:57:05.869Z,1.20
2022-10-09T10:59:43.563Z,1.60
2022-10-09T11:02:12.119Z,0.80
2022-10-09T11:04:59.111Z,1.30
2022-10-09T11:07:45.009Z,1.10
2022-10-09T11:10:26.797Z,1.80
2022-10-09T11:13:12.607Z,1.30
2022-10-09T11:16:05.967Z,0.90
2022-10-09T11:18:54.144Z,1.40
2022-10-09T11:21:59.563Z,1.20
2022-10-09T11:24:49.178Z,1.00
2022-10-09T11:27:29.448Z,1.40
2022-10-09T11:30:02.592Z,1.00
2022-10-09T11:32:34.893Z,1.40
2022-10-09T11:35:13.202Z,1.60
2022-10-09T11:37:44.182Z,1.70
2022-10-09T11:40:20.755Z,1.70
2022-10-09T11:43:18.505Z,1.30
2022-10-09T11:46:27.104Z,1.30
2022-10-09T11:49:54.516Z,1.70
2022-10-09T11:52:39.962Z,1.30
2022-10-09T11:55:16.470Z,2.20
2022-10-09T11:57:44.678Z,1.10
2022-10-09T12:00:14.380Z,1.60
2022-10-09T12:08:26.587Z,1.20
2022-10-09T12:10:58.876Z,1.30
2022-10-09T12:13:30.378Z,1.10
2022-10-09T12:16:00.084Z,1.40
2022-10-09T12:21:02.321Z,1.60
2022-10-09T12:23:37.176Z,1.40
2022-10-09T12:26:11.679Z,1.00
2022-10-09T12:28:48.167Z,1.10
2022-10-09T12:31:31.764Z,1.00
2022-10-09T12:34:05.267Z,1.10
2022-10-09T12:36:34.534Z,1.00
2022-10-09T12:39:23.768Z,1.10
2022-10-09T12:41:56.413Z,1.30
2022-10-09T12:44:30.643Z,1.20
2022-10-09T12:47:36.437Z,1.30
2022-10-09T12:50:18.754Z,1.50
2022-10-09T12:52:56.943Z,1.30
2022-10-09T12:56:12.963Z,1.00
2022-10-09T12:58:47.182Z,1.20
2022-10-09T13:01:16.713Z,1.00
2022-10-09T13:03:58.834Z,1.40
2022-10-09T13:06:48.088Z,0.90
2022-10-09T13:09:38.392Z,0.90
2022-10-09T13:12:31.223Z,1.50
2022-10-09T13:25:25.303Z,1.90
2022-10-09T13:29:24.278Z,1.20
2022-10-09T13:31:53.180Z,0.90
2022-10-09T13:35:13.034Z,1.40
2022-10-09T13:46:15.324Z,1.00
2022-10-09T13:59:47.425Z,1.20
2022-10-09T14:02:15.751Z,1.30
2022-10-09T14:04:48.753Z,1.40
2022-10-09T14:07:17.086Z,1.30
2022-10-09T14:09:45.391Z,1.40
2022-10-09T14:12:13.643Z,1.30
2022-10-09T14:14:52.223Z,1.30
2022-10-09T14:26:05.128Z,1.30
2022-10-09T14:29:48.362Z,1.20
2022-10-09T14:54:29.723Z,1.60
2022-10-09T14:57:55.597Z,1.80
2022-10-09T15:00:24.412Z,2.90
2022-10-09T15:20:22.557Z,1.30
2022-10-09T15:24:03.376Z,1.50
2022-10-09T15:31:40.985Z,1.60
2022-10-09T15:42:22.158Z,2.20
2022-10-09T16:04:32.005Z,6.70
2022-10-09T16:07:06.962Z,4.20
2022-10-09T16:09:40.145Z,3.20
2022-10-09T16:13:08.745Z,3.10
2022-10-09T16:19:25.038Z,2.20
2022-10-09T16:25:32.310Z,3.40
2022-10-09T16:28:07.227Z,3.90
2022-10-09T16:31:09.681Z,4.50
2022-10-09T16:34:57.299Z,4.40
2022-10-09T16:37:25.679Z,4.70
2022-10-09T16:44:39.498Z,7.30
2022-10-09T16:48:02.932Z,10.00
2022-10-09T16:53:56.442Z,12.30
2022-10-09T16:57:52.852Z,11.50
2022-10-09T17:00:45.334Z,9.70
2022-10-09T17:03:22.736Z,10.40
2022-10-09T17:06:40.178Z,8.10
2022-10-09T17:23:27.648Z,6.30
2022-10-09T17:26:20.768Z,10.90
2022-10-09T17:29:15.593Z,14.20
2022-10-09T17:35:20.678Z,34.40
2022-10-09T17:42:00.183Z,21.60
2022-10-09T17:49:31.894Z,9.00
2022-10-09T17:56:45.156Z,5.90
2022-10-09T18:05:55.576Z,14.60
2022-10-09T18:08:23.812Z,15.70
2022-10-09T18:11:03.130Z,13.50
2022-10-09T18:13:57.354Z,15.30
2022-10-09T18:16:35.840Z,16.80
2022-10-09T18:19:15.653Z,17.80
2022-10-09T18:39:15.239Z,8.70
2022-10-09T18:43:02.295Z,8.20
2022-10-09T18:46:06.534Z,7.20
2022-10-09T18:48:51.967Z,10.10
2022-10-09T18:51:29.264Z,13.70
2022-10-09T18:54:02.253Z,19.60
2022-10-09T19:01:25.055Z,7.20
2022-10-09T19:03:54.906Z,8.40
2022-10-09T19:06:24.838Z,10.80
2022-10-09T19:09:01.307Z,11.80
2022-10-09T19:12:50.138Z,11.80
2022-10-09T19:15:42.522Z,11.90
2022-10-09T19:18:11.923Z,9.90
2022-10-09T19:30:58.091Z,6.80
2022-10-09T19:38:32.722Z,9.50
2022-10-09T19:44:59.913Z,11.60
2022-10-09T19:56:43.270Z,10.80
2022-10-09T20:02:43.957Z,4.60
2022-10-09T20:05:13.582Z,4.40
2022-10-09T20:08:04.187Z,4.60
2022-10-09T20:10:46.607Z,6.30
2022-10-09T20:13:35.007Z,6.20
2022-10-09T20:16:33.336Z,5.10
2022-10-09T20:19:08.315Z,5.00
2022-10-09T20:22:25.926Z,4.50
2022-10-09T20:27:57.358Z,4.50
2022-10-09T20:33:49.670Z,5.20
2022-10-09T21:01:43.490Z,5.20
2022-10-09T21:04:33.730Z,4.00
2022-10-09T21:30:16.193Z,5.10
2022-10-09T21:32:45.358Z,4.70
2022-10-09T21:36:09.411Z,4.40
2022-10-09T21:38:38.345Z,4.20
2022-10-09T21:46:10.379Z,3.50
2022-10-09T21:48:47.905Z,3.40
2022-10-09T21:51:16.207Z,3.60
2022-10-09T21:53:47.757Z,3.60
2022-10-09T21:56:25.320Z,3.40
2022-10-09T22:08:08.036Z,4.00
2022-10-09T22:10:36.335Z,3.20
2022-10-09T22:13:10.834Z,3.10
2022-10-09T22:19:02.372Z,3.50
2022-10-09T22:21:37.854Z,3.10
2022-10-09T22:24:16.609Z,3.10
2022-10-09T22:38:34.614Z,2.70
2022-10-09T22:41:34.482Z,3.20
2022-10-09T22:47:37.919Z,2.90
2022-10-09T22:50:06.463Z,2.70
2022-10-09T22:52:34.602Z,2.40
2022-10-09T22:55:03.571Z,2.80
2022-10-09T22:57:31.612Z,2.70
2022-10-09T22:59:59.602Z,2.90
2022-10-09T23:02:27.747Z,2.90
2022-10-09T23:04:55.849Z,2.80
2022-10-09T23:07:23.960Z,2.90
2022-10-09T23:09:52.342Z,2.70
2022-10-09T23:12:20.435Z,2.80
2022-10-09T23:14:48.591Z,2.70
2022-10-09T23:17:17.229Z,2.70
2022-10-09T23:19:45.317Z,2.80
2022-10-09T23:22:13.327Z,2.80
2022-10-09T23:24:41.536Z,3.10
2022-10-09T23:27:09.503Z,2.60
2022-10-09T23:29:37.531Z,2.60
2022-10-09T23:32:05.629Z,2.60
2022-10-09T23:34:35.666Z,2.60
2022-10-09T23:37:03.684Z,2.80
2022-10-09T23:39:31.787Z,2.50
2022-10-09T23:41:59.798Z,2.80
2022-10-09T23:44:27.801Z,2.50
2022-10-09T23:46:55.884Z,2.80
2022-10-09T23:49:23.860Z,2.70
2022-10-09T23:51:51.856Z,2.70
2022-10-09T23:54:20.134Z,2.80
2022-10-09T23:56:48.586Z,2.90
2022-10-09T23:59:16.617Z,2.50
